Open Full Screen Window  High Contrast Mode
Wind Gusting 16 knots
11
September 25, 2018 11:54 AM EDT
Weather Information
Wind Direction
  200 °
Wind Speed
  11 kt (13 mph)
Wind Gust
  16 kt (18 mph)
Altimeter
30.02 in
Visibility
10 SM
Temperature
22° C
72° F
Dewpoint
22° C
72° F
Humidity
100%
Sky Condition
Overcast @ 1,000 ft
MVFR

METAR KAXV 251554Z AUTO 20011G16KT 10SM OVC010 22/22 A3002 RMK AO2 LTG DSNT E SW AND W

FAA Disclaimer: The data displayed is for advisory purposes only and is not to be used for flight planning or operations.